sensor_id;sensor_type;location;lat;lon;timestamp;pressure;altitude;pressure_sealevel;temperature;humidity
32320;BME280;19080;51.750;5.888;2023-02-14T00:00:48;103226.81;;;5.07;100.00
32320;BME280;19080;51.750;5.888;2023-02-14T00:03:14;103272.81;;;5.36;100.00
32320;BME280;19080;51.750;5.888;2023-02-14T00:05:41;103272.59;;;5.56;100.00
32320;BME280;19080;51.750;5.888;2023-02-14T00:08:08;103236.84;;;5.36;100.00
32320;BME280;19080;51.750;5.888;2023-02-14T00:10:34;103150.81;;;5.00;100.00
32320;BME280;19080;51.750;5.888;2023-02-14T00:13:01;103161.34;;;5.12;100.00
32320;BME280;19080;51.750;5.888;2023-02-14T00:15:27;103162.72;;;5.18;100.00
32320;BME280;19080;51.750;5.888;2023-02-14T00:17:56;103243.81;;;5.59;100.00
32320;BME280;19080;51.750;5.888;2023-02-14T00:20:26;103257.00;;;5.59;100.00
32320;BME280;19080;51.750;5.888;2023-02-14T00:22:53;103269.47;;;5.73;100.00
32320;BME280;19080;51.750;5.888;2023-02-14T00:25:20;103187.75;;;5.25;100.00
32320;BME280;19080;51.750;5.888;2023-02-14T00:27:46;103162.47;;;5.15;100.00
32320;BME280;19080;51.750;5.888;2023-02-14T00:30:13;103171.81;;;5.23;100.00
32320;BME280;19080;51.750;5.888;2023-02-14T00:32:41;103212.00;;;5.44;100.00
32320;BME280;19080;51.750;5.888;2023-02-14T00:35:08;103234.09;;;5.58;100.00
32320;BME280;19080;51.750;5.888;2023-02-14T00:37:35;103222.41;;;5.43;100.00
32320;BME280;19080;51.750;5.888;2023-02-14T00:40:02;103232.25;;;5.57;100.00
32320;BME280;19080;51.750;5.888;2023-02-14T00:42:30;103230.44;;;5.56;100.00
32320;BME280;19080;51.750;5.888;2023-02-14T00:44:57;103222.41;;;5.43;100.00
32320;BME280;19080;51.750;5.888;2023-02-14T00:47:23;103152.88;;;4.93;100.00
32320;BME280;19080;51.750;5.888;2023-02-14T00:49:50;103235.25;;;5.27;100.00
32320;BME280;19080;51.750;5.888;2023-02-14T00:52:17;103154.00;;;4.73;100.00
32320;BME280;19080;51.750;5.888;2023-02-14T00:54:44;103234.13;;;5.11;100.00
32320;BME280;19080;51.750;5.888;2023-02-14T00:57:12;103262.94;;;5.21;100.00
32320;BME280;19080;51.750;5.888;2023-02-14T00:59:39;103252.44;;;5.10;100.00
32320;BME280;19080;51.750;5.888;2023-02-14T01:02:05;103156.25;;;4.56;100.00
32320;BME280;19080;51.750;5.888;2023-02-14T01:04:33;103254.97;;;5.08;100.00
32320;BME280;19080;51.750;5.888;2023-02-14T01:06:59;103150.75;;;4.53;100.00
32320;BME280;19080;51.750;5.888;2023-02-14T01:09:26;103165.97;;;4.57;100.00
32320;BME280;19080;51.750;5.888;2023-02-14T01:11:53;103222.91;;;4.90;100.00
32320;BME280;19080;51.750;5.888;2023-02-14T01:14:19;103271.00;;;5.11;100.00
32320;BME280;19080;51.750;5.888;2023-02-14T01:16:48;103269.50;;;5.03;100.00
32320;BME280;19080;51.750;5.888;2023-02-14T01:19:15;103205.78;;;4.62;100.00
32320;BME280;19080;51.750;5.888;2023-02-14T01:21:42;103230.97;;;4.70;100.00
32320;BME280;19080;51.750;5.888;2023-02-14T01:24:10;103262.94;;;4.86;100.00
32320;BME280;19080;51.750;5.888;2023-02-14T01:26:38;103179.06;;;4.34;100.00
32320;BME280;19080;51.750;5.888;2023-02-14T01:29:05;103196.03;;;4.49;100.00
32320;BME280;19080;51.750;5.888;2023-02-14T01:31:33;103245.28;;;4.74;100.00
32320;BME280;19080;51.750;5.888;2023-02-14T01:34:01;103248.94;;;4.76;100.00
32320;BME280;19080;51.750;5.888;2023-02-14T01:36:29;103171.19;;;4.34;100.00
32320;BME280;19080;51.750;5.888;2023-02-14T01:39:00;103088.28;;;3.82;100.00
32320;BME280;19080;51.750;5.888;2023-02-14T01:41:30;103145.41;;;4.18;100.00
32320;BME280;19080;51.750;5.888;2023-02-14T01:46:30;103233.38;;;4.67;100.00
32320;BME280;19080;51.750;5.888;2023-02-14T01:49:02;103236.13;;;4.69;100.00
32320;BME280;19080;51.750;5.888;2023-02-14T01:51:30;103266.81;;;4.80;100.00
32320;BME280;19080;51.750;5.888;2023-02-14T01:53:58;103279.72;;;4.77;100.00
32320;BME280;19080;51.750;5.888;2023-02-14T01:56:42;103247.31;;;4.66;100.00
32320;BME280;19080;51.750;5.888;2023-02-14T01:59:15;103247.75;;;4.61;100.00
32320;BME280;19080;51.750;5.888;2023-02-14T02:01:44;103246.53;;;4.67;100.00
32320;BME280;19080;51.750;5.888;2023-02-14T02:04:22;103244.34;;;4.62;100.00
32320;BME280;19080;51.750;5.888;2023-02-14T02:06:54;103135.91;;;4.09;100.00
32320;BME280;19080;51.750;5.888;2023-02-14T02:09:45;103255.09;;;4.65;100.00
32320;BME280;19080;51.750;5.888;2023-02-14T02:12:12;103244.53;;;4.53;100.00
32320;BME280;19080;51.750;5.888;2023-02-14T02:14:39;103158.84;;;4.00;100.00
32320;BME280;19080;51.750;5.888;2023-02-14T02:40:17;103238.59;;;4.22;100.00
32320;BME280;19080;51.750;5.888;2023-02-14T02:46:04;103227.94;;;4.20;100.00
32320;BME280;19080;51.750;5.888;2023-02-14T02:48:59;103100.34;;;3.47;100.00
32320;BME280;19080;51.750;5.888;2023-02-14T02:51:36;103102.75;;;3.44;100.00
32320;BME280;19080;51.750;5.888;2023-02-14T02:54:35;103185.72;;;3.85;100.00
32320;BME280;19080;51.750;5.888;2023-02-14T02:57:09;103207.00;;;3.88;100.00
32320;BME280;19080;51.750;5.888;2023-02-14T02:59:40;103212.50;;;3.91;100.00
32320;BME280;19080;51.750;5.888;2023-02-14T03:02:15;103168.00;;;3.61;100.00
32320;BME280;19080;51.750;5.888;2023-02-14T03:04:46;103183.34;;;3.67;100.00
32320;BME280;19080;51.750;5.888;2023-02-14T03:25:50;103239.03;;;3.41;100.00
32320;BME280;19080;51.750;5.888;2023-02-14T03:31:19;103228.31;;;3.28;100.00
32320;BME280;19080;51.750;5.888;2023-02-14T03:33:58;103203.03;;;3.08;100.00
32320;BME280;19080;51.750;5.888;2023-02-14T03:36:36;103250.72;;;3.34;100.00
32320;BME280;19080;51.750;5.888;2023-02-14T03:39:11;103184.94;;;3.01;100.00
32320;BME280;19080;51.750;5.888;2023-02-14T03:41:52;103214.94;;;3.14;100.00
32320;BME280;19080;51.750;5.888;2023-02-14T03:44:24;103229.13;;;3.16;100.00
32320;BME280;19080;51.750;5.888;2023-02-14T03:46:57;103218.38;;;3.13;100.00
32320;BME280;19080;51.750;5.888;2023-02-14T03:49:29;103211.59;;;2.95;100.00
32320;BME280;19080;51.750;5.888;2023-02-14T03:51:59;103205.00;;;3.00;100.00
32320;BME280;19080;51.750;5.888;2023-02-14T03:54:29;103142.94;;;2.58;100.00
32320;BME280;19080;51.750;5.888;2023-02-14T03:57:07;103234.78;;;3.11;100.00
32320;BME280;19080;51.750;5.888;2023-02-14T03:59:37;103087.66;;;2.25;100.00
32320;BME280;19080;51.750;5.888;2023-02-14T04:02:09;103182.88;;;2.76;100.00
32320;BME280;19080;51.750;5.888;2023-02-14T04:04:41;103212.38;;;2.84;100.00
32320;BME280;19080;51.750;5.888;2023-02-14T04:07:14;103143.47;;;2.44;100.00
32320;BME280;19080;51.750;5.888;2023-02-14T04:09:41;103198.63;;;2.76;100.00
32320;BME280;19080;51.750;5.888;2023-02-14T04:12:08;103210.03;;;2.77;100.00
32320;BME280;19080;51.750;5.888;2023-02-14T04:14:36;103147.16;;;2.36;100.00
32320;BME280;19080;51.750;5.888;2023-02-14T04:17:03;103162.59;;;2.43;100.00
32320;BME280;19080;51.750;5.888;2023-02-14T04:19:49;103247.78;;;2.89;100.00
32320;BME280;19080;51.750;5.888;2023-02-14T04:22:16;103128.00;;;2.27;100.00
32320;BME280;19080;51.750;5.888;2023-02-14T04:24:42;103223.81;;;2.74;100.00
32320;BME280;19080;51.750;5.888;2023-02-14T04:27:09;103117.66;;;2.18;100.00
32320;BME280;19080;51.750;5.888;2023-02-14T04:29:38;103103.25;;;2.03;100.00
32320;BME280;19080;51.750;5.888;2023-02-14T04:32:10;103238.47;;;2.82;100.00
32320;BME280;19080;51.750;5.888;2023-02-14T04:34:38;103254.63;;;2.87;100.00
32320;BME280;19080;51.750;5.888;2023-02-14T04:37:05;103226.44;;;2.74;100.00
32320;BME280;19080;51.750;5.888;2023-02-14T04:39:32;103165.22;;;2.43;100.00
32320;BME280;19080;51.750;5.888;2023-02-14T04:41:59;103237.69;;;2.83;100.00
32320;BME280;19080;51.750;5.888;2023-02-14T04:44:26;103218.16;;;2.70;100.00
32320;BME280;19080;51.750;5.888;2023-02-14T04:46:53;103107.97;;;2.07;100.00
32320;BME280;19080;51.750;5.888;2023-02-14T04:49:20;103200.34;;;2.66;100.00
32320;BME280;19080;51.750;5.888;2023-02-14T04:51:46;103211.59;;;2.75;100.00
32320;BME280;19080;51.750;5.888;2023-02-14T04:54:13;103179.25;;;2.54;100.00
32320;BME280;19080;51.750;5.888;2023-02-14T04:56:40;103228.91;;;2.83;100.00
32320;BME280;19080;51.750;5.888;2023-02-14T04:59:07;103111.13;;;2.34;100.00
32320;BME280;19080;51.750;5.888;2023-02-14T05:01:34;103117.78;;;2.40;100.00
32320;BME280;19080;51.750;5.888;2023-02-14T05:04:00;103222.59;;;3.01;100.00
32320;BME280;19080;51.750;5.888;2023-02-14T05:06:27;103189.56;;;2.83;100.00
32320;BME280;19080;51.750;5.888;2023-02-14T05:08:54;103210.78;;;2.96;100.00
32320;BME280;19080;51.750;5.888;2023-02-14T05:11:22;103207.25;;;2.96;100.00
32320;BME280;19080;51.750;5.888;2023-02-14T05:13:48;103185.50;;;2.86;100.00
32320;BME280;19080;51.750;5.888;2023-02-14T05:16:15;103073.00;;;2.27;100.00
32320;BME280;19080;51.750;5.888;2023-02-14T05:18:42;103158.25;;;2.74;100.00
32320;BME280;19080;51.750;5.888;2023-02-14T05:21:08;103087.53;;;2.34;100.00
32320;BME280;19080;51.750;5.888;2023-02-14T05:23:36;103170.31;;;2.72;100.00
32320;BME280;19080;51.750;5.888;2023-02-14T05:26:03;103192.72;;;2.79;100.00
32320;BME280;19080;51.750;5.888;2023-02-14T05:28:30;103206.88;;;2.81;100.00
32320;BME280;19080;51.750;5.888;2023-02-14T05:30:57;103158.41;;;2.55;100.00
32320;BME280;19080;51.750;5.888;2023-02-14T05:33:25;103105.22;;;2.16;100.00
32320;BME280;19080;51.750;5.888;2023-02-14T05:35:52;103198.13;;;2.60;100.00
32320;BME280;19080;51.750;5.888;2023-02-14T05:38:19;103195.38;;;2.58;100.00
32320;BME280;19080;51.750;5.888;2023-02-14T05:40:45;103076.94;;;1.91;100.00
32320;BME280;19080;51.750;5.888;2023-02-14T05:43:12;103181.88;;;2.44;100.00
32320;BME280;19080;51.750;5.888;2023-02-14T05:45:39;103198.38;;;2.53;100.00
32320;BME280;19080;51.750;5.888;2023-02-14T05:48:05;103173.34;;;2.36;100.00
32320;BME280;19080;51.750;5.888;2023-02-14T05:50:32;103156.31;;;2.21;100.00
32320;BME280;19080;51.750;5.888;2023-02-14T05:52:59;103160.25;;;2.26;100.00
32320;BME280;19080;51.750;5.888;2023-02-14T05:55:26;103181.75;;;2.32;100.00
32320;BME280;19080;51.750;5.888;2023-02-14T05:57:52;103128.53;;;2.03;100.00
32320;BME280;19080;51.750;5.888;2023-02-14T06:00:19;103201.66;;;2.40;100.00
32320;BME280;19080;51.750;5.888;2023-02-14T06:02:46;103181.47;;;2.29;100.00
32320;BME280;19080;51.750;5.888;2023-02-14T06:05:13;103081.63;;;1.75;100.00
32320;BME280;19080;51.750;5.888;2023-02-14T06:07:40;103104.69;;;1.89;100.00
32320;BME280;19080;51.750;5.888;2023-02-14T06:10:09;103174.13;;;2.25;100.00
32320;BME280;19080;51.750;5.888;2023-02-14T06:12:35;103193.13;;;2.33;100.00
32320;BME280;19080;51.750;5.888;2023-02-14T06:15:03;103166.53;;;2.18;100.00
32320;BME280;19080;51.750;5.888;2023-02-14T06:17:29;103076.97;;;1.71;100.00
32320;BME280;19080;51.750;5.888;2023-02-14T06:19:56;103200.22;;;2.34;100.00
32320;BME280;19080;51.750;5.888;2023-02-14T06:22:23;103187.91;;;2.22;100.00
32320;BME280;19080;51.750;5.888;2023-02-14T06:24:49;103169.16;;;2.08;100.00
32320;BME280;19080;51.750;5.888;2023-02-14T06:27:16;103157.59;;;1.95;100.00
32320;BME280;19080;51.750;5.888;2023-02-14T06:29:42;103191.28;;;2.11;100.00
32320;BME280;19080;51.750;5.888;2023-02-14T06:32:09;103197.97;;;2.18;100.00
32320;BME280;19080;51.750;5.888;2023-02-14T06:34:36;103091.97;;;1.53;100.00
32320;BME280;19080;51.750;5.888;2023-02-14T06:37:02;103213.69;;;2.18;100.00
32320;BME280;19080;51.750;5.888;2023-02-14T06:39:29;103109.13;;;1.60;100.00
32320;BME280;19080;51.750;5.888;2023-02-14T06:41:55;103201.88;;;2.03;100.00
32320;BME280;19080;51.750;5.888;2023-02-14T06:44:22;103191.78;;;1.97;100.00
32320;BME280;19080;51.750;5.888;2023-02-14T06:46:49;103192.72;;;1.98;100.00
32320;BME280;19080;51.750;5.888;2023-02-14T06:49:15;103222.34;;;2.17;100.00
32320;BME280;19080;51.750;5.888;2023-02-14T06:51:42;103115.66;;;1.55;100.00
32320;BME280;19080;51.750;5.888;2023-02-14T06:54:08;103217.34;;;2.10;100.00
32320;BME280;19080;51.750;5.888;2023-02-14T06:56:35;103185.75;;;1.88;100.00
32320;BME280;19080;51.750;5.888;2023-02-14T06:59:02;103183.25;;;1.79;100.00
32320;BME280;19080;51.750;5.888;2023-02-14T07:01:28;103110.00;;;1.40;100.00
32320;BME280;19080;51.750;5.888;2023-02-14T07:03:55;103139.88;;;1.52;100.00
32320;BME280;19080;51.750;5.888;2023-02-14T07:06:21;103129.00;;;1.48;100.00
32320;BME280;19080;51.750;5.888;2023-02-14T07:08:48;103206.69;;;1.88;100.00
32320;BME280;19080;51.750;5.888;2023-02-14T07:11:15;103226.25;;;2.02;100.00
32320;BME280;19080;51.750;5.888;2023-02-14T07:13:42;103236.22;;;2.16;100.00
32320;BME280;19080;51.750;5.888;2023-02-14T07:16:09;103183.00;;;1.86;100.00
32320;BME280;19080;51.750;5.888;2023-02-14T07:18:36;103226.00;;;2.09;100.00
32320;BME280;19080;51.750;5.888;2023-02-14T07:21:04;103111.09;;;1.52;100.00
32320;BME280;19080;51.750;5.888;2023-02-14T07:23:31;103221.16;;;2.13;100.00
32320;BME280;19080;51.750;5.888;2023-02-14T07:25:58;103206.34;;;2.14;100.00
32320;BME280;19080;51.750;5.888;2023-02-14T07:28:25;103244.25;;;2.38;100.00
32320;BME280;19080;51.750;5.888;2023-02-14T07:30:51;103192.19;;;2.12;100.00
32320;BME280;19080;51.750;5.888;2023-02-14T07:33:18;103191.94;;;2.19;100.00
32320;BME280;19080;51.750;5.888;2023-02-14T07:35:45;103238.63;;;2.53;100.00
32320;BME280;19080;51.750;5.888;2023-02-14T07:38:11;103216.84;;;2.75;100.00
32320;BME280;19080;51.750;5.888;2023-02-14T07:40:38;103217.84;;;3.07;100.00
32320;BME280;19080;51.750;5.888;2023-02-14T07:43:04;103110.56;;;3.00;100.00
32320;BME280;19080;51.750;5.888;2023-02-14T07:45:31;103216.16;;;3.93;100.00
32320;BME280;19080;51.750;5.888;2023-02-14T07:47:58;103221.94;;;4.33;100.00
32320;BME280;19080;51.750;5.888;2023-02-14T07:50:27;103235.13;;;4.78;100.00
32320;BME280;19080;51.750;5.888;2023-02-14T07:52:55;103206.41;;;4.93;100.00
32320;BME280;19080;51.750;5.888;2023-02-14T07:55:22;103212.81;;;5.32;100.00
32320;BME280;19080;51.750;5.888;2023-02-14T07:57:50;103153.28;;;5.34;100.00
32320;BME280;19080;51.750;5.888;2023-02-14T08:00:18;103203.66;;;5.86;100.00
32320;BME280;19080;51.750;5.888;2023-02-14T08:02:44;103159.22;;;5.79;100.00
32320;BME280;19080;51.750;5.888;2023-02-14T08:05:11;103216.56;;;6.43;100.00
32320;BME280;19080;51.750;5.888;2023-02-14T08:07:38;103149.91;;;6.46;100.00
32320;BME280;19080;51.750;5.888;2023-02-14T08:10:05;103230.59;;;7.07;100.00
32320;BME280;19080;51.750;5.888;2023-02-14T08:12:32;103173.59;;;6.97;100.00
32320;BME280;19080;51.750;5.888;2023-02-14T08:15:17;103244.03;;;7.63;100.00
32320;BME280;19080;51.750;5.888;2023-02-14T08:18:02;103200.38;;;7.69;100.00
32320;BME280;19080;51.750;5.888;2023-02-14T08:20:29;103220.72;;;8.11;100.00
32320;BME280;19080;51.750;5.888;2023-02-14T08:22:56;103214.00;;;8.16;100.00
32320;BME280;19080;51.750;5.888;2023-02-14T08:25:23;103210.06;;;8.38;100.00
32320;BME280;19080;51.750;5.888;2023-02-14T08:27:50;103207.75;;;8.57;100.00
32320;BME280;19080;51.750;5.888;2023-02-14T08:30:16;103213.22;;;8.75;100.00
32320;BME280;19080;51.750;5.888;2023-02-14T08:32:43;103219.63;;;8.93;100.00
32320;BME280;19080;51.750;5.888;2023-02-14T08:35:10;103228.91;;;9.31;100.00
32320;BME280;19080;51.750;5.888;2023-02-14T08:37:37;103188.50;;;9.35;100.00
32320;BME280;19080;51.750;5.888;2023-02-14T08:40:04;103216.38;;;9.74;100.00
32320;BME280;19080;51.750;5.888;2023-02-14T08:42:31;103179.56;;;9.64;100.00
32320;BME280;19080;51.750;5.888;2023-02-14T08:44:58;103220.50;;;10.00;100.00
32320;BME280;19080;51.750;5.888;2023-02-14T08:47:24;103240.59;;;10.11;100.00
32320;BME280;19080;51.750;5.888;2023-02-14T08:49:51;103205.81;;;9.90;100.00
32320;BME280;19080;51.750;5.888;2023-02-14T08:52:18;103210.22;;;10.06;100.00
32320;BME280;19080;51.750;5.888;2023-02-14T08:54:44;103222.81;;;10.25;100.00
32320;BME280;19080;51.750;5.888;2023-02-14T08:57:11;103119.50;;;10.13;100.00
32320;BME280;19080;51.750;5.888;2023-02-14T08:59:39;103168.78;;;10.74;100.00
32320;BME280;19080;51.750;5.888;2023-02-14T09:02:05;103213.00;;;10.90;100.00
32320;BME280;19080;51.750;5.888;2023-02-14T09:04:33;103180.78;;;10.84;100.00
32320;BME280;19080;51.750;5.888;2023-02-14T09:07:00;103216.47;;;11.41;100.00
32320;BME280;19080;51.750;5.888;2023-02-14T09:09:27;103193.75;;;11.48;100.00
32320;BME280;19080;51.750;5.888;2023-02-14T09:11:54;103208.56;;;11.78;100.00
32320;BME280;19080;51.750;5.888;2023-02-14T09:14:22;103185.22;;;11.72;100.00
32320;BME280;19080;51.750;5.888;2023-02-14T09:16:49;103195.94;;;12.11;100.00
32320;BME280;19080;51.750;5.888;2023-02-14T09:19:16;103126.28;;;11.83;100.00
32320;BME280;19080;51.750;5.888;2023-02-14T09:21:46;103184.56;;;12.34;100.00
32320;BME280;19080;51.750;5.888;2023-02-14T09:24:12;103199.09;;;12.81;100.00
32320;BME280;19080;51.750;5.888;2023-02-14T09:26:39;103191.00;;;13.20;100.00
32320;BME280;19080;51.750;5.888;2023-02-14T09:29:07;103197.63;;;13.50;95.98
32320;BME280;19080;51.750;5.888;2023-02-14T09:31:35;103123.78;;;13.08;92.87
32320;BME280;19080;51.750;5.888;2023-02-14T09:34:02;103189.69;;;13.74;88.88
32320;BME280;19080;51.750;5.888;2023-02-14T09:36:29;103200.50;;;14.01;84.19
32320;BME280;19080;51.750;5.888;2023-02-14T09:38:55;103192.13;;;14.14;84.35
32320;BME280;19080;51.750;5.888;2023-02-14T09:44:00;103204.44;;;14.57;78.59
32320;BME280;19080;51.750;5.888;2023-02-14T09:46:29;103110.97;;;14.11;77.85
32320;BME280;19080;51.750;5.888;2023-02-14T09:49:01;103214.09;;;15.03;75.57
32320;BME280;19080;51.750;5.888;2023-02-14T09:51:30;103100.19;;;14.82;70.55
32320;BME280;19080;51.750;5.888;2023-02-14T09:54:10;103191.81;;;15.56;69.75
32320;BME280;19080;51.750;5.888;2023-02-14T09:56:59;103201.56;;;15.54;68.86
32320;BME280;19080;51.750;5.888;2023-02-14T09:59:49;103206.88;;;15.52;67.48
32320;BME280;19080;51.750;5.888;2023-02-14T10:05:23;103194.66;;;16.19;67.31
32320;BME280;19080;51.750;5.888;2023-02-14T10:08:02;103054.00;;;15.73;63.36
32320;BME280;19080;51.750;5.888;2023-02-14T10:10:39;103134.84;;;16.51;62.17
32320;BME280;19080;51.750;5.888;2023-02-14T10:13:21;103178.13;;;16.97;61.61
32320;BME280;19080;51.750;5.888;2023-02-14T10:16:02;103176.03;;;17.19;60.56
32320;BME280;19080;51.750;5.888;2023-02-14T10:18:39;103109.63;;;16.76;59.80
32320;BME280;19080;51.750;5.888;2023-02-14T10:21:08;103105.19;;;17.13;59.79
32320;BME280;19080;51.750;5.888;2023-02-14T10:23:44;103142.66;;;17.85;57.20
32320;BME280;19080;51.750;5.888;2023-02-14T10:26:37;103174.59;;;18.12;55.98
32320;BME280;19080;51.750;5.888;2023-02-14T10:29:10;103096.25;;;17.92;55.83
32320;BME280;19080;51.750;5.888;2023-02-14T10:31:51;103155.13;;;18.67;54.74
32320;BME280;19080;51.750;5.888;2023-02-14T10:34:41;103165.19;;;18.77;54.13
32320;BME280;19080;51.750;5.888;2023-02-14T10:48:16;103161.19;;;19.60;49.88
32320;BME280;19080;51.750;5.888;2023-02-14T10:53:45;103167.91;;;19.89;48.56
32320;BME280;19080;51.750;5.888;2023-02-14T10:56:26;103098.97;;;19.44;49.69
32320;BME280;19080;51.750;5.888;2023-02-14T10:58:54;103129.59;;;20.16;48.31
32320;BME280;19080;51.750;5.888;2023-02-14T11:01:22;103076.13;;;19.80;47.86
32320;BME280;19080;51.750;5.888;2023-02-14T11:03:56;103138.00;;;20.39;47.61
32320;BME280;19080;51.750;5.888;2023-02-14T11:06:29;103125.75;;;20.73;46.78
32320;BME280;19080;51.750;5.888;2023-02-14T11:08:56;103073.25;;;20.39;45.16
32320;BME280;19080;51.750;5.888;2023-02-14T11:11:50;103143.81;;;20.78;45.01
32320;BME280;19080;51.750;5.888;2023-02-14T11:14:31;103127.84;;;21.09;44.99
32320;BME280;19080;51.750;5.888;2023-02-14T11:16:59;103119.03;;;21.30;44.36
32320;BME280;19080;51.750;5.888;2023-02-14T11:19:28;103061.06;;;20.87;45.78
32320;BME280;19080;51.750;5.888;2023-02-14T11:21:57;103028.38;;;20.50;44.52
32320;BME280;19080;51.750;5.888;2023-02-14T11:26:57;103102.84;;;21.31;44.91
32320;BME280;19080;51.750;5.888;2023-02-14T11:29:30;103126.44;;;21.57;43.63
32320;BME280;19080;51.750;5.888;2023-02-14T11:32:34;103112.28;;;22.11;43.09
32320;BME280;19080;51.750;5.888;2023-02-14T11:35:26;103113.28;;;22.39;42.79
32320;BME280;19080;51.750;5.888;2023-02-14T11:38:01;103045.56;;;22.08;42.15
32320;BME280;19080;51.750;5.888;2023-02-14T11:40:32;103031.19;;;22.34;42.52
32320;BME280;19080;51.750;5.888;2023-02-14T11:43:17;103028.47;;;22.54;40.93
32320;BME280;19080;51.750;5.888;2023-02-14T11:45:46;103107.00;;;23.22;40.27
32320;BME280;19080;51.750;5.888;2023-02-14T11:48:24;103034.66;;;23.58;40.21
32320;BME280;19080;51.750;5.888;2023-02-14T11:51:08;103031.97;;;23.55;40.08
32320;BME280;19080;51.750;5.888;2023-02-14T11:56:08;103082.31;;;24.14;38.49
32320;BME280;19080;51.750;5.888;2023-02-14T11:58:43;103016.44;;;23.90;38.24
32320;BME280;19080;51.750;5.888;2023-02-14T12:01:21;103053.19;;;24.43;37.57
32320;BME280;19080;51.750;5.888;2023-02-14T12:03:50;103006.22;;;24.32;37.40
32320;BME280;19080;51.750;5.888;2023-02-14T12:06:37;103006.56;;;23.76;38.13
32320;BME280;19080;51.750;5.888;2023-02-14T12:11:58;103064.59;;;22.88;38.46
32320;BME280;19080;51.750;5.888;2023-02-14T12:14:29;102985.13;;;22.63;38.48
32320;BME280;19080;51.750;5.888;2023-02-14T12:17:28;103055.53;;;23.21;38.58
32320;BME280;19080;51.750;5.888;2023-02-14T12:20:10;102959.84;;;22.91;38.48
32320;BME280;19080;51.750;5.888;2023-02-14T12:22:45;102975.91;;;23.60;37.85
32320;BME280;19080;51.750;5.888;2023-02-14T12:25:19;102983.19;;;23.38;37.96
32320;BME280;19080;51.750;5.888;2023-02-14T12:27:53;102962.16;;;23.93;37.79
32320;BME280;19080;51.750;5.888;2023-02-14T12:30:23;103016.75;;;24.70;36.33
32320;BME280;19080;51.750;5.888;2023-02-14T12:32:52;103017.53;;;24.83;36.63
32320;BME280;19080;51.750;5.888;2023-02-14T12:43:46;102949.81;;;23.28;37.44
32320;BME280;19080;51.750;5.888;2023-02-14T12:46:37;103017.66;;;22.37;39.19
32320;BME280;19080;51.750;5.888;2023-02-14T12:49:30;103013.03;;;23.33;38.76
32320;BME280;19080;51.750;5.888;2023-02-14T12:52:30;103005.28;;;24.33;37.14
32320;BME280;19080;51.750;5.888;2023-02-14T12:57:55;102921.06;;;24.41;35.78
32320;BME280;19080;51.750;5.888;2023-02-14T13:00:48;102989.06;;;25.22;34.67
32320;BME280;19080;51.750;5.888;2023-02-14T13:03:35;103005.63;;;25.01;34.52
32320;BME280;19080;51.750;5.888;2023-02-14T13:06:31;102990.75;;;25.34;34.79
32320;BME280;19080;51.750;5.888;2023-02-14T13:09:15;102983.34;;;24.60;35.26
32320;BME280;19080;51.750;5.888;2023-02-14T13:14:40;102990.41;;;24.80;35.05
32320;BME280;19080;51.750;5.888;2023-02-14T13:21:15;102946.19;;;24.62;35.05
32320;BME280;19080;51.750;5.888;2023-02-14T13:23:15;102902.81;;;24.56;34.80
32320;BME280;19080;51.750;5.888;2023-02-14T13:25:49;102928.13;;;25.40;33.43
32320;BME280;19080;51.750;5.888;2023-02-14T13:28:18;102890.63;;;24.94;34.20
32320;BME280;19080;51.750;5.888;2023-02-14T13:30:45;102956.41;;;25.25;34.08
32320;BME280;19080;51.750;5.888;2023-02-14T13:34:23;102957.97;;;25.46;33.63
32320;BME280;19080;51.750;5.888;2023-02-14T13:36:29;102891.13;;;24.48;33.98
32320;BME280;19080;51.750;5.888;2023-02-14T13:38:57;102870.97;;;24.71;33.86
32320;BME280;19080;51.750;5.888;2023-02-14T13:41:25;102931.81;;;25.36;33.59
32320;BME280;19080;51.750;5.888;2023-02-14T13:43:58;102939.28;;;25.86;33.41
32320;BME280;19080;51.750;5.888;2023-02-14T13:49:04;102923.75;;;24.45;33.53
32320;BME280;19080;51.750;5.888;2023-02-14T13:51:46;102893.78;;;23.33;35.67
32320;BME280;19080;51.750;5.888;2023-02-14T13:54:44;102930.06;;;22.87;36.61
32320;BME280;19080;51.750;5.888;2023-02-14T13:57:33;102902.94;;;21.37;38.67
32320;BME280;19080;51.750;5.888;2023-02-14T14:10:58;102894.34;;;18.79;43.56
32320;BME280;19080;51.750;5.888;2023-02-14T14:18:52;102845.03;;;17.69;46.07
32320;BME280;19080;51.750;5.888;2023-02-14T14:21:39;102917.19;;;17.52;48.39
32320;BME280;19080;51.750;5.888;2023-02-14T14:27:02;102891.59;;;17.24;49.09
32320;BME280;19080;51.750;5.888;2023-02-14T14:29:37;102920.28;;;17.72;48.70
32320;BME280;19080;51.750;5.888;2023-02-14T14:32:16;102908.13;;;17.47;49.18
32320;BME280;19080;51.750;5.888;2023-02-14T14:35:34;102889.13;;;17.36;49.88
32320;BME280;19080;51.750;5.888;2023-02-14T14:37:45;102810.72;;;18.05;48.37
32320;BME280;19080;51.750;5.888;2023-02-14T14:40:32;102889.91;;;19.57;46.49
32320;BME280;19080;51.750;5.888;2023-02-14T14:43:06;102824.78;;;19.16;45.93
32320;BME280;19080;51.750;5.888;2023-02-14T14:45:35;102885.78;;;19.91;45.49
32320;BME280;19080;51.750;5.888;2023-02-14T14:48:09;102882.72;;;20.56;44.64
32320;BME280;19080;51.750;5.888;2023-02-14T14:50:43;102893.88;;;21.26;43.62
32320;BME280;19080;51.750;5.888;2023-02-14T14:55:52;102851.63;;;21.53;42.07
32320;BME280;19080;51.750;5.888;2023-02-14T14:58:40;102814.72;;;21.76;40.82
32320;BME280;19080;51.750;5.888;2023-02-14T15:01:11;102827.34;;;22.07;41.05
32320;BME280;19080;51.750;5.888;2023-02-14T15:03:46;102875.06;;;21.66;41.72
32320;BME280;19080;51.750;5.888;2023-02-14T15:06:19;102878.03;;;20.34;43.94
32320;BME280;19080;51.750;5.888;2023-02-14T15:08:48;102885.84;;;19.97;45.02
32320;BME280;19080;51.750;5.888;2023-02-14T15:11:19;102849.13;;;19.25;46.39